• Join FlightAware (Why Join?)
  • Login
  • US Flag 
01:12AM EDT


 

Airport Tracker/Info


-or-


 

Live Flight TrackerFlight Track Log ✈ SWA1233 ✈ 02-Dec-2013 ✈ KMKE - KTPA

Flight Track Log - Related Links

Times and Time Zones

All times are in EST time to prevent confusion due to time zone crossing. See the SWA1233 flight status page for this flight to view local times or setup timezone preferences in your user account.

Time Position Orientation Groundspeed Altitude Reporting Facility
EST Latitude Longitude Course Direction KTS MPH feet Rate Location/Type
02:36PM 42.9500 -87.8833 114° Southeast 147 169 1,500  Level KMKE
02:37PM 42.9333 -87.8333 114° Southeast 206 237 3,500 2,400 Climbing KMKE
02:38PM 42.9000 -87.8833 228° Southwest 223 257 6,400 2,760 Climbing KMKE
02:39PM 42.8672 -88.0056 250° West 237 273 10,400 2,640 Climbing Chicago Center
02:40PM 42.7889 -88.0194 187° South 288 331 13,000 2,940 Climbing Chicago Center
02:41PM 42.6872 -88.0083 175° South 301 346 16,600 2,940 Climbing Chicago Center
02:42PM 42.5997 -87.9911 172° South 313 360 19,200 2,100 Climbing Chicago Center
02:43PM 42.4983 -87.9592 167° South 363 418 21,000 1,980 Climbing Chicago Center
02:44PM 42.3925 -87.9244 166° South 386 444 23,300 2,040 Climbing Chicago Center
02:45PM 42.2758 -87.8908 168° South 407 468 25,300 1,920 Climbing Chicago Center
02:46PM 42.1594 -87.8547 167° South 424 488 27,300 2,100 Climbing Chicago Center
02:47PM 42.0161 -87.8114 167° South 437 503 29,700 1,860 Climbing Chicago Center
02:48PM 41.8947 -87.7850 171° South 443 510 31,200 1,500 Climbing Chicago Center
02:49PM 41.7719 -87.7861 180° South 442 509 32,900 1,500 Climbing Chicago Center
02:50PM 41.6500 -87.7856 180° South 439 505 34,300 1,200 Climbing Chicago Center
02:51PM 41.5242 -87.7856 180° South 447 514 35,500 1,140 Climbing Chicago Center
02:53PM 41.3975 -87.7842 180° South 450 518 36,700 1,080 Climbing Chicago Center
02:54PM 41.2686 -87.7825 179° South 453 521 37,800 960 Climbing Chicago Center
02:55PM 41.1419 -87.7831 180° South 453 521 38,800 540 Climbing Chicago Center
02:56PM 40.9914 -87.7822 180° South 453 521 39,000 60 Climbing Chicago Center
02:57PM 40.8661 -87.7778 178° South 451 519 39,000  Level Chicago Center
02:58PM 40.7422 -87.7778 180° South 446 513 39,000  Level Chicago Center
02:59PM 40.6178 -87.7769 180° South 447 514 39,000  Level Chicago Center
03:00PM 40.4936 -87.7756 180° South 448 516 39,000  Level Chicago Center
03:01PM 40.3458 -87.7572 175° South 450 518 39,000  Level Chicago Center
03:02PM 40.2203 -87.7236 168° South 460 529 39,000  Level Chicago Center
03:03PM 40.0881 -87.6886 169° South 459 528 39,000  Level Chicago Center
03:04PM 39.9658 -87.6539 168° South 454 522 39,000  Level Chicago Center
03:05PM 39.8414 -87.6228 169° South 458 527 39,000  Level Chicago Center
03:06PM 39.7183 -87.5900 168° South 454 522 39,000  Level Chicago Center
03:07PM 39.5961 -87.5581 169° South 451 519 39,000  Level Chicago Center
03:08PM 39.4483 -87.5192 169° South 455 524 39,000  Level Chicago Center
03:09PM 39.3250 -87.4861 168° South 456 525 39,000  Level Chicago Center
03:10PM 39.2000 -87.4550 169° South 460 529 39,000  Level Chicago Center
03:11PM 39.0589 -87.4156 168° South 456 525 39,000  Level Chicago Center
03:13PM 38.8875 -87.3722 169° South 459 528 39,000  Level Indianapolis Center
03:14PM 38.7606 -87.3386 168° South 464 534 39,000  Level Indianapolis Center
03:15PM 38.6078 -87.2997 169° South 467 537 39,000  Level Indianapolis Center
03:16PM 38.4803 -87.2661 168° South 468 539 39,000  Level Indianapolis Center
03:17PM 38.3536 -87.2342 169° South 469 540 39,000  Level Indianapolis Center
03:18PM 38.2167 -87.1997 169° South 465 535 39,000  Level Indianapolis Center
03:19PM 38.0797 -87.1642 168° South 465 535 39,000  Level Indianapolis Center
03:20PM 37.9522 -87.1322 169° South 466 536 39,000  Level Indianapolis Center
03:21PM 37.8253 -87.0997 169° South 466 536 39,000  Level Indianapolis Center
03:22PM 37.6969 -87.0683 169° South 467 537 39,000  Level Indianapolis Center
03:23PM 37.5689 -87.0361 169° South 468 539 39,000  Level Indianapolis Center
03:24PM 37.4333 -87.0031 169° South 470 541 39,000  Level Indianapolis Center
03:25PM 37.3036 -86.9703 169° South 471 542 39,000  Level Indianapolis Center
03:27PM 37.1089 -86.9217 169° South 470 541 39,000  Level Memphis Center
03:28PM 36.9786 -86.8900 169° South 471 542 39,000  Level Memphis Center
03:28PM 36.8931 -86.8692 169° South 469 540 39,000  Level Indianapolis Center
03:29PM 36.7639 -86.8369 169° South 468 539 39,000  Level Indianapolis Center
03:30PM 36.6339 -86.8050 169° South 471 542 39,000  Level Indianapolis Center
03:31PM 36.5017 -86.7728 169° South 475 547 39,000  Level Indianapolis Center
03:32PM 36.3714 -86.7433 170° South 475 547 39,000  Level Indianapolis Center
03:33PM 36.2333 -86.7089 169° South 475 547 39,000  Level Indianapolis Center
03:34PM 36.1006 -86.6678 166° South 481 554 39,000  Level Indianapolis Center
03:35PM 35.9694 -86.6019 158° South 500 575 39,000  Level Indianapolis Center
03:37PM 35.7994 -86.5181 158° South 492 566 39,000  Level Indianapolis Center
03:38PM 35.6714 -86.4544 158° South 492 566 39,000  Level Indianapolis Center
03:39PM 35.5422 -86.3903 158° South 495 570 39,000  Level Indianapolis Center
03:40PM 35.3919 -86.3175 158° South 493 567 39,000  Level Memphis Center
03:41PM 35.2639 -86.2544 158° South 492 566 39,000  Level Memphis Center
03:42PM 35.1319 -86.1897 158° South 488 562 39,000  Level Atlanta Center
03:43PM 34.9911 -86.1253 159° South 493 567 39,000  Level Atlanta Center
03:44PM 34.8794 -86.0669 157° South 484 557 39,000  Level Atlanta Center
03:45PM 34.7511 -86.0056 159° South 489 563 39,000  Level Atlanta Center
03:46PM 34.6228 -85.9419 158° South 494 568 39,000  Level Atlanta Center
03:47PM 34.4964 -85.8811 158° South 494 568 39,000  Level Atlanta Center
03:48PM 34.3700 -85.8231 159° South 494 568 39,000  Level Atlanta Center
03:49PM 34.2331 -85.7600 159° South 482 555 39,000  Level Atlanta Center
03:50PM 34.1128 -85.7022 158° South 477 549 39,000  Level Atlanta Center
03:51PM 34.0008 -85.6525 160° South 477 549 39,000  Level Atlanta Center
03:52PM 33.8764 -85.5950 159° South 472 543 39,000  Level Atlanta Center
03:53PM 33.7517 -85.5353 158° South 472 543 39,000  Level Atlanta Center
03:54PM 33.6272 -85.4783 159° South 472 543 39,000  Level Atlanta Center
03:55PM 33.5047 -85.4189 158° South 472 543 39,000  Level Atlanta Center
03:56PM 33.3822 -85.3647 160° South 485 558 39,000  Level Atlanta Center
03:57PM 33.2556 -85.3033 158° South 480 552 39,000  Level Atlanta Center
03:58PM 33.1267 -85.2469 160° South 488 562 39,000  Level Atlanta Center
03:59PM 33.0061 -85.1906 159° South 480 552 39,000  Level Atlanta Center
04:00PM 32.8647 -85.1344 162° South 480 552 39,000  Level Atlanta Center
04:01PM 32.7461 -85.0983 166° South 480 552 39,000  Level Atlanta Center
04:02PM 32.6150 -85.0547 164° South 477 549 39,000  Level Atlanta Center
04:03PM 32.4881 -85.0117 164° South 477 549 39,000  Level Atlanta Center
04:04PM 32.3567 -84.9683 164° South 482 555 39,000  Level Atlanta Center
04:05PM 32.2256 -84.9300 166° South 482 555 39,000  Level Atlanta Center
04:06PM 32.0944 -84.8847 164° South 488 562 39,000  Level Atlanta Center
04:09PM 31.7517 -84.7689 164° South 489 563 39,000  Level Jacksonville Center
04:10PM 31.6189 -84.7247 164° South 489 563 39,000  Level Jacksonville Center
04:11PM 31.4900 -84.6808 164° South 489 563 39,000  Level Jacksonville Center
04:12PM 31.3589 -84.6419 166° South 484 557 39,000  Level Jacksonville Center
04:13PM 31.2317 -84.6419 180° South 479 551 39,000  Level Jacksonville Center
04:14PM 31.1042 -84.6517 184° South 465 535 39,000  Level Jacksonville Center
04:15PM 30.9767 -84.6589 183° South 460 529 39,000  Level Jacksonville Center
04:16PM 30.8639 -84.6689 184° South 460 529 39,000  Level Jacksonville Center
04:17PM 30.7175 -84.6783 183° South 460 529 39,000  Level Jacksonville Center
04:18PM 30.5925 -84.6639 174° South 455 524 39,000  Level Jacksonville Center
04:19PM 30.4811 -84.5606 141° Southeast 455 524 39,000  Level Jacksonville Center
04:20PM 30.3739 -84.4553 140° Southeast 475 547 39,000 -120 Level Jacksonville Center
04:21PM 30.2728 -84.3500 138° Southeast 484 557 38,800 -600 Descending Jacksonville Center
04:22PM 30.1675 -84.2428 139° Southeast 496 571 37,800 -960 Descending Jacksonville Center
04:23PM 30.0642 -84.1381 139° Southeast 502 578 36,900 -960 Descending Jacksonville Center
04:24PM 29.9586 -84.0336 139° Southeast 502 578 35,900 -960 Descending Jacksonville Center
04:25PM 29.8553 -83.9294 139° Southeast 502 578 35,000 -960 Descending Jacksonville Center
04:26PM 29.7453 -83.8469 147° Southeast 491 565 34,000 -600 Descending Jacksonville Center
04:27PM 29.6392 -83.7814 152° Southeast 486 559 33,900 -600 Descending Jacksonville Center
04:28PM 29.5247 -83.7064 150° Southeast 475 547 32,900 -1,500 Descending Jacksonville Center
04:29PM 29.4083 -83.6292 150° Southeast 475 547 30,900 -2,340 Descending Jacksonville Center
04:30PM 29.2939 -83.5569 151° Southeast 475 547 28,300 -1,920 Descending Jacksonville Center
04:31PM 29.1817 -83.4872 152° Southeast 469 540 27,100 -1,140 Descending Jacksonville Center
04:32PM 29.0714 -83.4153 150° Southeast 463 533 26,100 -1,380 Descending Jacksonville Center
04:33PM 28.9631 -83.3458 151° Southeast 451 519 24,400 -2,100 Descending Jacksonville Center
04:35PM 28.7333 -83.2000 151° Southeast 416 479 19,500 -2,100 Descending Tampa TRACON
04:36PM 28.6500 -83.1500 152° Southeast 401 461 17,900 -1,920 Descending Tampa TRACON
04:37PM 28.5333 -83.0833 153° Southeast 384 442 15,700 -1,980 Descending Tampa TRACON
04:38PM 28.4500 -83.0167 145° Southeast 369 425 13,800 -1,920 Descending Tampa TRACON
04:39PM 28.3500 -82.9667 156° South 358 412 11,900 -1,500 Descending Tampa TRACON
04:40PM 28.2667 -82.9167 152° Southeast 345 397 10,800 -1,200 Descending Tampa TRACON
04:41PM 28.2000 -82.8667 147° Southeast 304 350 9,700 -1,320 Descending Tampa TRACON
04:42PM 28.1500 -82.7833 124° Southeast 307 353 8,200 -1,440 Descending Tampa TRACON
04:43PM 28.1000 -82.7167 130° Southeast 298 343 6,900 -1,440 Descending Tampa TRACON
04:44PM 28.0333 -82.6500 139° Southeast 285 328 5,500 -960 Descending Tampa TRACON
04:45PM 27.9833 -82.6167 150° Southeast 271 312 5,100 -300 Descending Tampa TRACON
04:46PM 27.9167 -82.6167 180° South 225 259 5,000 -780 Descending Tampa TRACON
04:47PM 27.8500 -82.6167 180° South 229 264 3,500 -1,080 Descending Tampa TRACON
04:48PM 27.7833 -82.6167 180° South 220 253 3,000 -480 Descending Tampa TRACON
04:49PM 27.7833 -82.5667 90° East 208 239 2,700 -240 Descending Tampa TRACON
04:50PM 27.8333 -82.5500 16° North 176 203 2,600 -480 Descending Tampa TRACON
04:51PM 27.8833 -82.5500 360° North 160 184 1,800 -840 Descending Tampa TRACON
04:52PM 27.9167 -82.5500 360° North 136 157 1,000 -720 Descending Tampa TRACON
04:53PM 27.9500 -82.5500 360° North 129 148 300 -660 Descending Tampa TRACON